sensor_id;sensor_type;location;lat;lon;timestamp;P1;durP1;ratioP1;P2;durP2;ratioP2
8225;SDS011;4154;48.810;9.012;2023-02-04T00:00:14;4.60;;;4.00;;
8225;SDS011;4154;48.810;9.012;2023-02-04T00:02:45;4.20;;;3.87;;
8225;SDS011;4154;48.810;9.012;2023-02-04T00:05:11;4.10;;;3.80;;
8225;SDS011;4154;48.810;9.012;2023-02-04T00:07:38;4.30;;;4.00;;
8225;SDS011;4154;48.810;9.012;2023-02-04T00:10:04;4.33;;;3.93;;
8225;SDS011;4154;48.810;9.012;2023-02-04T00:12:31;3.77;;;3.47;;
8225;SDS011;4154;48.810;9.012;2023-02-04T00:14:58;3.73;;;3.43;;
8225;SDS011;4154;48.810;9.012;2023-02-04T00:17:24;3.30;;;3.10;;
8225;SDS011;4154;48.810;9.012;2023-02-04T00:19:50;3.90;;;3.50;;
8225;SDS011;4154;48.810;9.012;2023-02-04T00:22:16;3.50;;;3.20;;
8225;SDS011;4154;48.810;9.012;2023-02-04T00:24:42;3.37;;;3.07;;
8225;SDS011;4154;48.810;9.012;2023-02-04T00:27:12;3.23;;;3.03;;
8225;SDS011;4154;48.810;9.012;2023-02-04T00:29:38;3.13;;;2.93;;
8225;SDS011;4154;48.810;9.012;2023-02-04T00:32:04;3.10;;;2.90;;
8225;SDS011;4154;48.810;9.012;2023-02-04T00:34:29;3.37;;;2.97;;
8225;SDS011;4154;48.810;9.012;2023-02-04T00:36:55;3.40;;;3.10;;
8225;SDS011;4154;48.810;9.012;2023-02-04T00:39:21;2.93;;;2.73;;
8225;SDS011;4154;48.810;9.012;2023-02-04T00:41:46;2.80;;;2.60;;
8225;SDS011;4154;48.810;9.012;2023-02-04T00:44:12;2.90;;;2.70;;
8225;SDS011;4154;48.810;9.012;2023-02-04T00:46:39;4.00;;;3.37;;
8225;SDS011;4154;48.810;9.012;2023-02-04T00:49:07;3.40;;;3.10;;
8225;SDS011;4154;48.810;9.012;2023-02-04T00:51:38;3.70;;;3.40;;
8225;SDS011;4154;48.810;9.012;2023-02-04T00:54:10;3.77;;;3.47;;
8225;SDS011;4154;48.810;9.012;2023-02-04T00:56:36;3.43;;;3.13;;
8225;SDS011;4154;48.810;9.012;2023-02-04T00:59:02;3.27;;;3.07;;
8225;SDS011;4154;48.810;9.012;2023-02-04T01:01:28;3.10;;;2.90;;
8225;SDS011;4154;48.810;9.012;2023-02-04T01:03:54;3.17;;;2.87;;
8225;SDS011;4154;48.810;9.012;2023-02-04T01:06:19;2.80;;;2.60;;
8225;SDS011;4154;48.810;9.012;2023-02-04T01:08:45;2.80;;;2.60;;
8225;SDS011;4154;48.810;9.012;2023-02-04T01:11:11;2.50;;;2.30;;
8225;SDS011;4154;48.810;9.012;2023-02-04T01:13:36;2.20;;;2.00;;
8225;SDS011;4154;48.810;9.012;2023-02-04T01:16:02;2.93;;;2.10;;
8225;SDS011;4154;48.810;9.012;2023-02-04T01:18:27;2.20;;;2.07;;
8225;SDS011;4154;48.810;9.012;2023-02-04T01:20:53;2.07;;;1.73;;
8225;SDS011;4154;48.810;9.012;2023-02-04T01:23:19;1.70;;;1.60;;
8225;SDS011;4154;48.810;9.012;2023-02-04T01:25:44;1.73;;;1.63;;
8225;SDS011;4154;48.810;9.012;2023-02-04T01:28:10;1.73;;;1.63;;
8225;SDS011;4154;48.810;9.012;2023-02-04T01:30:35;2.20;;;2.00;;
8225;SDS011;4154;48.810;9.012;2023-02-04T01:33:01;2.47;;;1.90;;
8225;SDS011;4154;48.810;9.012;2023-02-04T01:35:27;2.00;;;1.70;;
8225;SDS011;4154;48.810;9.012;2023-02-04T01:37:52;2.20;;;2.00;;
8225;SDS011;4154;48.810;9.012;2023-02-04T01:40:18;3.03;;;1.70;;
8225;SDS011;4154;48.810;9.012;2023-02-04T01:42:44;1.50;;;1.40;;
8225;SDS011;4154;48.810;9.012;2023-02-04T01:45:09;1.80;;;1.40;;
8225;SDS011;4154;48.810;9.012;2023-02-04T01:47:35;1.50;;;1.10;;
8225;SDS011;4154;48.810;9.012;2023-02-04T01:50:02;1.70;;;1.20;;
8225;SDS011;4154;48.810;9.012;2023-02-04T01:52:30;2.73;;;1.27;;
8225;SDS011;4154;48.810;9.012;2023-02-04T01:55:02;2.30;;;1.17;;
8225;SDS011;4154;48.810;9.012;2023-02-04T01:57:30;2.43;;;1.10;;
8225;SDS011;4154;48.810;9.012;2023-02-04T01:59:57;3.33;;;0.97;;
8225;SDS011;4154;48.810;9.012;2023-02-04T02:05:24;2.30;;;1.10;;
8225;SDS011;4154;48.810;9.012;2023-02-04T02:08:01;4.30;;;1.63;;
8225;SDS011;4154;48.810;9.012;2023-02-04T02:10:30;2.03;;;1.13;;
8225;SDS011;4154;48.810;9.012;2023-02-04T02:12:57;2.80;;;1.40;;
8225;SDS011;4154;48.810;9.012;2023-02-04T02:15:23;2.77;;;1.17;;
8225;SDS011;4154;48.810;9.012;2023-02-04T02:17:50;2.30;;;1.13;;
8225;SDS011;4154;48.810;9.012;2023-02-04T02:20:19;2.87;;;1.30;;
8225;SDS011;4154;48.810;9.012;2023-02-04T02:25:41;2.90;;;1.20;;
8225;SDS011;4154;48.810;9.012;2023-02-04T02:28:10;3.20;;;1.30;;
8225;SDS011;4154;48.810;9.012;2023-02-04T02:30:42;5.20;;;1.30;;
8225;SDS011;4154;48.810;9.012;2023-02-04T02:33:10;4.13;;;1.40;;
8225;SDS011;4154;48.810;9.012;2023-02-04T02:35:38;3.83;;;1.37;;
8225;SDS011;4154;48.810;9.012;2023-02-04T02:38:07;3.50;;;1.30;;
8225;SDS011;4154;48.810;9.012;2023-02-04T02:40:37;3.73;;;1.40;;
8225;SDS011;4154;48.810;9.012;2023-02-04T02:43:03;3.67;;;1.67;;
8225;SDS011;4154;48.810;9.012;2023-02-04T02:45:30;2.77;;;1.40;;
8225;SDS011;4154;48.810;9.012;2023-02-04T02:47:58;5.13;;;1.87;;
8225;SDS011;4154;48.810;9.012;2023-02-04T02:50:28;5.83;;;1.53;;
8225;SDS011;4154;48.810;9.012;2023-02-04T02:52:57;6.37;;;1.77;;
8225;SDS011;4154;48.810;9.012;2023-02-04T02:55:23;3.63;;;1.50;;
8225;SDS011;4154;48.810;9.012;2023-02-04T02:57:52;4.57;;;1.90;;
8225;SDS011;4154;48.810;9.012;2023-02-04T03:00:23;6.13;;;1.73;;
8225;SDS011;4154;48.810;9.012;2023-02-04T03:05:54;4.23;;;1.90;;
8225;SDS011;4154;48.810;9.012;2023-02-04T03:08:38;3.03;;;1.60;;
8225;SDS011;4154;48.810;9.012;2023-02-04T03:11:05;2.73;;;1.50;;
8225;SDS011;4154;48.810;9.012;2023-02-04T03:13:31;3.00;;;1.43;;
8225;SDS011;4154;48.810;9.012;2023-02-04T03:16:00;3.10;;;1.57;;
8225;SDS011;4154;48.810;9.012;2023-02-04T03:18:28;2.87;;;1.60;;
8225;SDS011;4154;48.810;9.012;2023-02-04T03:20:55;3.90;;;1.83;;
8225;SDS011;4154;48.810;9.012;2023-02-04T03:23:21;5.63;;;1.90;;
8225;SDS011;4154;48.810;9.012;2023-02-04T03:25:47;5.23;;;2.00;;
8225;SDS011;4154;48.810;9.012;2023-02-04T03:28:12;6.63;;;2.40;;
8225;SDS011;4154;48.810;9.012;2023-02-04T03:30:38;4.40;;;1.80;;
8225;SDS011;4154;48.810;9.012;2023-02-04T03:33:04;4.87;;;1.93;;
8225;SDS011;4154;48.810;9.012;2023-02-04T03:35:29;4.83;;;2.10;;
8225;SDS011;4154;48.810;9.012;2023-02-04T03:37:55;4.20;;;1.90;;
8225;SDS011;4154;48.810;9.012;2023-02-04T03:40:21;5.57;;;2.13;;
8225;SDS011;4154;48.810;9.012;2023-02-04T03:42:46;3.87;;;2.07;;
8225;SDS011;4154;48.810;9.012;2023-02-04T03:45:12;5.10;;;2.03;;
8225;SDS011;4154;48.810;9.012;2023-02-04T03:47:38;5.00;;;1.87;;
8225;SDS011;4154;48.810;9.012;2023-02-04T03:50:03;5.13;;;2.37;;
8225;SDS011;4154;48.810;9.012;2023-02-04T03:52:29;4.13;;;1.97;;
8225;SDS011;4154;48.810;9.012;2023-02-04T03:54:55;6.53;;;1.97;;
8225;SDS011;4154;48.810;9.012;2023-02-04T03:57:21;4.87;;;2.50;;
8225;SDS011;4154;48.810;9.012;2023-02-04T03:59:46;3.97;;;2.07;;
8225;SDS011;4154;48.810;9.012;2023-02-04T04:02:12;6.47;;;1.97;;
8225;SDS011;4154;48.810;9.012;2023-02-04T04:04:37;4.90;;;1.80;;
8225;SDS011;4154;48.810;9.012;2023-02-04T04:07:03;4.07;;;1.70;;
8225;SDS011;4154;48.810;9.012;2023-02-04T04:09:29;5.87;;;2.00;;
8225;SDS011;4154;48.810;9.012;2023-02-04T04:11:54;2.93;;;1.60;;
8225;SDS011;4154;48.810;9.012;2023-02-04T04:14:20;4.07;;;2.00;;
8225;SDS011;4154;48.810;9.012;2023-02-04T04:16:46;2.33;;;1.60;;
8225;SDS011;4154;48.810;9.012;2023-02-04T04:19:11;4.23;;;2.07;;
8225;SDS011;4154;48.810;9.012;2023-02-04T04:21:37;4.60;;;2.00;;
8225;SDS011;4154;48.810;9.012;2023-02-04T04:24:03;4.43;;;2.37;;
8225;SDS011;4154;48.810;9.012;2023-02-04T04:26:28;3.17;;;1.90;;
8225;SDS011;4154;48.810;9.012;2023-02-04T04:28:54;3.50;;;2.03;;
8225;SDS011;4154;48.810;9.012;2023-02-04T04:31:20;4.00;;;2.10;;
8225;SDS011;4154;48.810;9.012;2023-02-04T04:33:45;3.60;;;1.83;;
8225;SDS011;4154;48.810;9.012;2023-02-04T04:36:11;2.77;;;1.90;;
8225;SDS011;4154;48.810;9.012;2023-02-04T04:38:36;3.40;;;1.90;;
8225;SDS011;4154;48.810;9.012;2023-02-04T04:41:02;3.60;;;2.00;;
8225;SDS011;4154;48.810;9.012;2023-02-04T04:43:28;4.33;;;2.33;;
8225;SDS011;4154;48.810;9.012;2023-02-04T04:45:53;3.30;;;2.10;;
8225;SDS011;4154;48.810;9.012;2023-02-04T04:48:19;4.63;;;2.27;;
8225;SDS011;4154;48.810;9.012;2023-02-04T04:50:45;2.87;;;2.10;;
8225;SDS011;4154;48.810;9.012;2023-02-04T04:53:11;3.73;;;2.40;;
8225;SDS011;4154;48.810;9.012;2023-02-04T04:55:37;3.67;;;2.00;;
8225;SDS011;4154;48.810;9.012;2023-02-04T04:58:03;3.47;;;2.30;;
8225;SDS011;4154;48.810;9.012;2023-02-04T05:00:30;4.57;;;2.30;;
8225;SDS011;4154;48.810;9.012;2023-02-04T05:02:56;4.20;;;1.90;;
8225;SDS011;4154;48.810;9.012;2023-02-04T05:05:21;4.10;;;2.00;;
8225;SDS011;4154;48.810;9.012;2023-02-04T05:07:47;3.50;;;2.07;;
8225;SDS011;4154;48.810;9.012;2023-02-04T05:10:13;3.37;;;2.10;;
8225;SDS011;4154;48.810;9.012;2023-02-04T05:12:38;2.57;;;1.90;;
8225;SDS011;4154;48.810;9.012;2023-02-04T05:15:05;3.97;;;1.90;;
8225;SDS011;4154;48.810;9.012;2023-02-04T05:17:31;5.03;;;2.00;;
8225;SDS011;4154;48.810;9.012;2023-02-04T05:19:57;3.17;;;2.07;;
8225;SDS011;4154;48.810;9.012;2023-02-04T05:22:23;2.93;;;1.80;;
8225;SDS011;4154;48.810;9.012;2023-02-04T05:24:48;2.80;;;1.83;;
8225;SDS011;4154;48.810;9.012;2023-02-04T05:27:14;2.43;;;1.93;;
8225;SDS011;4154;48.810;9.012;2023-02-04T05:29:40;4.37;;;2.10;;
8225;SDS011;4154;48.810;9.012;2023-02-04T05:32:06;3.80;;;2.00;;
8225;SDS011;4154;48.810;9.012;2023-02-04T05:34:31;3.20;;;2.07;;
8225;SDS011;4154;48.810;9.012;2023-02-04T05:36:57;3.40;;;1.90;;
8225;SDS011;4154;48.810;9.012;2023-02-04T05:39:22;3.20;;;2.23;;
8225;SDS011;4154;48.810;9.012;2023-02-04T05:41:48;2.67;;;2.30;;
8225;SDS011;4154;48.810;9.012;2023-02-04T05:44:14;5.50;;;2.80;;
8225;SDS011;4154;48.810;9.012;2023-02-04T05:46:39;3.23;;;2.33;;
8225;SDS011;4154;48.810;9.012;2023-02-04T05:49:05;4.87;;;2.50;;
8225;SDS011;4154;48.810;9.012;2023-02-04T05:51:32;2.97;;;2.40;;
8225;SDS011;4154;48.810;9.012;2023-02-04T05:53:57;4.80;;;2.90;;
8225;SDS011;4154;48.810;9.012;2023-02-04T05:56:23;5.70;;;3.47;;
8225;SDS011;4154;48.810;9.012;2023-02-04T05:58:49;6.47;;;4.20;;
8225;SDS011;4154;48.810;9.012;2023-02-04T06:01:15;6.37;;;3.47;;
8225;SDS011;4154;48.810;9.012;2023-02-04T06:03:41;5.73;;;3.80;;
8225;SDS011;4154;48.810;9.012;2023-02-04T06:06:06;6.27;;;3.47;;
8225;SDS011;4154;48.810;9.012;2023-02-04T06:08:32;6.60;;;3.90;;
8225;SDS011;4154;48.810;9.012;2023-02-04T06:10:57;8.93;;;3.60;;
8225;SDS011;4154;48.810;9.012;2023-02-04T06:13:23;6.37;;;3.80;;
8225;SDS011;4154;48.810;9.012;2023-02-04T06:15:49;9.77;;;4.43;;
8225;SDS011;4154;48.810;9.012;2023-02-04T06:18:14;8.90;;;4.40;;
8225;SDS011;4154;48.810;9.012;2023-02-04T06:20:40;9.10;;;4.20;;
8225;SDS011;4154;48.810;9.012;2023-02-04T06:23:05;9.37;;;4.97;;
8225;SDS011;4154;48.810;9.012;2023-02-04T06:25:31;9.00;;;4.40;;
8225;SDS011;4154;48.810;9.012;2023-02-04T06:27:57;8.67;;;4.50;;
8225;SDS011;4154;48.810;9.012;2023-02-04T06:30:22;10.83;;;4.17;;
8225;SDS011;4154;48.810;9.012;2023-02-04T06:32:48;9.97;;;4.70;;
8225;SDS011;4154;48.810;9.012;2023-02-04T06:35:14;10.27;;;4.23;;
8225;SDS011;4154;48.810;9.012;2023-02-04T06:37:40;8.93;;;4.50;;
8225;SDS011;4154;48.810;9.012;2023-02-04T06:40:07;10.40;;;4.67;;
8225;SDS011;4154;48.810;9.012;2023-02-04T06:42:34;8.57;;;4.43;;
8225;SDS011;4154;48.810;9.012;2023-02-04T06:45:00;7.40;;;4.23;;
8225;SDS011;4154;48.810;9.012;2023-02-04T06:47:26;6.43;;;3.90;;
8225;SDS011;4154;48.810;9.012;2023-02-04T06:49:51;9.00;;;4.30;;
8225;SDS011;4154;48.810;9.012;2023-02-04T06:52:17;9.23;;;4.37;;
8225;SDS011;4154;48.810;9.012;2023-02-04T06:54:42;11.67;;;4.83;;
8225;SDS011;4154;48.810;9.012;2023-02-04T06:57:08;10.27;;;4.37;;
8225;SDS011;4154;48.810;9.012;2023-02-04T06:59:35;7.60;;;4.33;;
8225;SDS011;4154;48.810;9.012;2023-02-04T07:02:03;9.43;;;4.23;;
8225;SDS011;4154;48.810;9.012;2023-02-04T07:04:31;8.80;;;4.20;;
8225;SDS011;4154;48.810;9.012;2023-02-04T07:06:58;9.60;;;4.57;;
8225;SDS011;4154;48.810;9.012;2023-02-04T07:09:24;8.83;;;4.30;;
8225;SDS011;4154;48.810;9.012;2023-02-04T07:11:50;8.63;;;4.20;;
8225;SDS011;4154;48.810;9.012;2023-02-04T07:14:16;7.50;;;3.93;;
8225;SDS011;4154;48.810;9.012;2023-02-04T07:16:42;6.77;;;4.20;;
8225;SDS011;4154;48.810;9.012;2023-02-04T07:19:08;11.07;;;4.37;;
8225;SDS011;4154;48.810;9.012;2023-02-04T07:21:34;8.63;;;4.60;;
8225;SDS011;4154;48.810;9.012;2023-02-04T07:23:59;7.83;;;4.37;;
8225;SDS011;4154;48.810;9.012;2023-02-04T07:26:25;11.23;;;4.67;;
8225;SDS011;4154;48.810;9.012;2023-02-04T07:28:51;9.23;;;4.70;;
8225;SDS011;4154;48.810;9.012;2023-02-04T07:31:16;8.63;;;4.70;;
8225;SDS011;4154;48.810;9.012;2023-02-04T07:33:42;11.40;;;5.00;;
8225;SDS011;4154;48.810;9.012;2023-02-04T07:36:07;7.37;;;4.27;;
8225;SDS011;4154;48.810;9.012;2023-02-04T07:38:34;7.90;;;4.43;;
8225;SDS011;4154;48.810;9.012;2023-02-04T07:40:59;8.57;;;4.77;;
8225;SDS011;4154;48.810;9.012;2023-02-04T07:43:25;6.83;;;4.37;;
8225;SDS011;4154;48.810;9.012;2023-02-04T07:45:50;11.47;;;4.87;;
8225;SDS011;4154;48.810;9.012;2023-02-04T07:48:16;9.47;;;4.93;;
8225;SDS011;4154;48.810;9.012;2023-02-04T07:50:42;11.03;;;4.97;;
8225;SDS011;4154;48.810;9.012;2023-02-04T07:53:08;13.37;;;5.43;;
8225;SDS011;4154;48.810;9.012;2023-02-04T07:55:33;8.13;;;5.23;;
8225;SDS011;4154;48.810;9.012;2023-02-04T07:57:59;11.37;;;5.17;;
8225;SDS011;4154;48.810;9.012;2023-02-04T08:00:25;10.13;;;5.03;;
8225;SDS011;4154;48.810;9.012;2023-02-04T08:02:50;10.07;;;5.43;;
8225;SDS011;4154;48.810;9.012;2023-02-04T08:05:16;10.30;;;4.87;;
8225;SDS011;4154;48.810;9.012;2023-02-04T08:07:42;11.97;;;5.10;;
8225;SDS011;4154;48.810;9.012;2023-02-04T08:10:08;9.27;;;5.37;;
8225;SDS011;4154;48.810;9.012;2023-02-04T08:12:35;10.03;;;5.50;;
8225;SDS011;4154;48.810;9.012;2023-02-04T08:15:01;11.90;;;5.70;;
8225;SDS011;4154;48.810;9.012;2023-02-04T08:17:28;10.13;;;6.50;;
8225;SDS011;4154;48.810;9.012;2023-02-04T08:19:54;11.37;;;5.63;;
8225;SDS011;4154;48.810;9.012;2023-02-04T08:22:20;9.87;;;5.53;;
8225;SDS011;4154;48.810;9.012;2023-02-04T08:24:46;10.67;;;5.80;;
8225;SDS011;4154;48.810;9.012;2023-02-04T08:27:12;12.10;;;6.73;;
8225;SDS011;4154;48.810;9.012;2023-02-04T08:29:38;9.67;;;6.10;;
8225;SDS011;4154;48.810;9.012;2023-02-04T08:32:04;11.33;;;6.07;;
8225;SDS011;4154;48.810;9.012;2023-02-04T08:34:30;10.50;;;6.20;;
8225;SDS011;4154;48.810;9.012;2023-02-04T08:36:56;9.00;;;5.50;;
8225;SDS011;4154;48.810;9.012;2023-02-04T08:39:22;10.13;;;5.67;;
8225;SDS011;4154;48.810;9.012;2023-02-04T08:41:48;8.77;;;5.77;;
8225;SDS011;4154;48.810;9.012;2023-02-04T08:44:15;8.53;;;5.33;;
8225;SDS011;4154;48.810;9.012;2023-02-04T08:46:41;10.53;;;5.17;;
8225;SDS011;4154;48.810;9.012;2023-02-04T08:49:06;9.20;;;5.00;;
8225;SDS011;4154;48.810;9.012;2023-02-04T08:51:32;10.30;;;5.43;;
8225;SDS011;4154;48.810;9.012;2023-02-04T08:53:58;12.63;;;5.33;;
8225;SDS011;4154;48.810;9.012;2023-02-04T08:56:23;9.17;;;5.33;;
8225;SDS011;4154;48.810;9.012;2023-02-04T08:58:49;9.93;;;5.20;;
8225;SDS011;4154;48.810;9.012;2023-02-04T09:01:16;8.07;;;5.27;;
8225;SDS011;4154;48.810;9.012;2023-02-04T09:03:43;9.63;;;4.90;;
8225;SDS011;4154;48.810;9.012;2023-02-04T09:06:09;11.20;;;5.00;;
8225;SDS011;4154;48.810;9.012;2023-02-04T09:08:35;10.17;;;4.70;;
8225;SDS011;4154;48.810;9.012;2023-02-04T09:11:01;8.27;;;5.00;;
8225;SDS011;4154;48.810;9.012;2023-02-04T09:13:28;9.23;;;4.60;;
8225;SDS011;4154;48.810;9.012;2023-02-04T09:15:55;7.67;;;4.63;;
8225;SDS011;4154;48.810;9.012;2023-02-04T09:18:20;6.30;;;4.10;;
8225;SDS011;4154;48.810;9.012;2023-02-04T09:20:48;9.53;;;4.30;;
8225;SDS011;4154;48.810;9.012;2023-02-04T09:23:15;12.33;;;4.70;;
8225;SDS011;4154;48.810;9.012;2023-02-04T09:25:41;9.53;;;3.90;;
8225;SDS011;4154;48.810;9.012;2023-02-04T09:28:09;7.93;;;3.50;;
8225;SDS011;4154;48.810;9.012;2023-02-04T09:30:37;9.47;;;3.43;;
8225;SDS011;4154;48.810;9.012;2023-02-04T09:33:04;9.77;;;3.73;;
8225;SDS011;4154;48.810;9.012;2023-02-04T09:35:31;8.43;;;3.57;;
8225;SDS011;4154;48.810;9.012;2023-02-04T09:37:57;9.67;;;4.10;;
8225;SDS011;4154;48.810;9.012;2023-02-04T09:40:22;10.27;;;3.90;;
8225;SDS011;4154;48.810;9.012;2023-02-04T09:42:52;8.73;;;3.50;;
8225;SDS011;4154;48.810;9.012;2023-02-04T09:45:21;8.97;;;3.53;;
8225;SDS011;4154;48.810;9.012;2023-02-04T09:47:55;9.33;;;3.77;;
8225;SDS011;4154;48.810;9.012;2023-02-04T09:50:23;9.53;;;3.33;;
8225;SDS011;4154;48.810;9.012;2023-02-04T09:52:56;8.77;;;3.50;;
8225;SDS011;4154;48.810;9.012;2023-02-04T09:55:34;8.37;;;3.47;;
8225;SDS011;4154;48.810;9.012;2023-02-04T09:58:04;9.63;;;3.33;;
8225;SDS011;4154;48.810;9.012;2023-02-04T10:00:43;8.00;;;2.90;;
8225;SDS011;4154;48.810;9.012;2023-02-04T10:03:15;7.67;;;3.50;;
8225;SDS011;4154;48.810;9.012;2023-02-04T10:05:44;9.07;;;3.77;;
8225;SDS011;4154;48.810;9.012;2023-02-04T10:08:12;8.80;;;3.60;;
8225;SDS011;4154;48.810;9.012;2023-02-04T10:10:44;8.50;;;3.53;;
8225;SDS011;4154;48.810;9.012;2023-02-04T10:13:15;8.30;;;3.30;;
8225;SDS011;4154;48.810;9.012;2023-02-04T10:15:48;8.60;;;3.10;;
8225;SDS011;4154;48.810;9.012;2023-02-04T10:18:18;9.90;;;3.43;;
8225;SDS011;4154;48.810;9.012;2023-02-04T10:21:00;6.77;;;3.20;;
8225;SDS011;4154;48.810;9.012;2023-02-04T10:23:48;7.27;;;2.80;;
8225;SDS011;4154;48.810;9.012;2023-02-04T10:26:19;10.47;;;2.97;;
8225;SDS011;4154;48.810;9.012;2023-02-04T10:28:46;9.20;;;3.00;;
8225;SDS011;4154;48.810;9.012;2023-02-04T10:34:03;11.77;;;2.87;;
8225;SDS011;4154;48.810;9.012;2023-02-04T10:36:31;7.73;;;3.50;;
8225;SDS011;4154;48.810;9.012;2023-02-04T10:39:04;7.23;;;3.03;;
8225;SDS011;4154;48.810;9.012;2023-02-04T10:41:46;11.07;;;3.07;;
8225;SDS011;4154;48.810;9.012;2023-02-04T10:44:18;7.70;;;2.70;;
8225;SDS011;4154;48.810;9.012;2023-02-04T10:47:03;7.57;;;3.00;;
8225;SDS011;4154;48.810;9.012;2023-02-04T10:49:39;8.03;;;2.47;;
8225;SDS011;4154;48.810;9.012;2023-02-04T10:52:12;5.87;;;2.50;;
8225;SDS011;4154;48.810;9.012;2023-02-04T10:54:42;7.47;;;2.70;;
8225;SDS011;4154;48.810;9.012;2023-02-04T10:59:48;6.73;;;2.53;;
8225;SDS011;4154;48.810;9.012;2023-02-04T11:05:31;6.63;;;2.23;;
8225;SDS011;4154;48.810;9.012;2023-02-04T11:07:59;6.63;;;2.10;;
8225;SDS011;4154;48.810;9.012;2023-02-04T11:10:28;8.70;;;2.23;;
8225;SDS011;4154;48.810;9.012;2023-02-04T11:15:42;8.17;;;2.50;;
8225;SDS011;4154;48.810;9.012;2023-02-04T11:20:44;10.60;;;2.83;;
8225;SDS011;4154;48.810;9.012;2023-02-04T11:23:16;8.03;;;2.60;;
8225;SDS011;4154;48.810;9.012;2023-02-04T11:31:27;9.37;;;2.50;;
8225;SDS011;4154;48.810;9.012;2023-02-04T11:34:10;9.43;;;2.60;;
8225;SDS011;4154;48.810;9.012;2023-02-04T11:39:36;7.17;;;2.43;;
8225;SDS011;4154;48.810;9.012;2023-02-04T11:44:59;8.37;;;2.33;;
8225;SDS011;4154;48.810;9.012;2023-02-04T11:47:33;9.27;;;2.50;;
8225;SDS011;4154;48.810;9.012;2023-02-04T11:50:01;8.13;;;1.97;;
8225;SDS011;4154;48.810;9.012;2023-02-04T11:52:49;7.93;;;2.10;;
8225;SDS011;4154;48.810;9.012;2023-02-04T11:55:17;8.33;;;2.27;;
8225;SDS011;4154;48.810;9.012;2023-02-04T11:57:43;8.50;;;2.27;;
8225;SDS011;4154;48.810;9.012;2023-02-04T12:00:13;7.17;;;2.20;;
8225;SDS011;4154;48.810;9.012;2023-02-04T12:02:57;7.33;;;2.33;;
8225;SDS011;4154;48.810;9.012;2023-02-04T12:05:43;8.33;;;2.13;;
8225;SDS011;4154;48.810;9.012;2023-02-04T12:10:49;5.60;;;2.47;;
8225;SDS011;4154;48.810;9.012;2023-02-04T12:13:45;7.73;;;2.30;;
8225;SDS011;4154;48.810;9.012;2023-02-04T12:16:13;5.53;;;2.30;;
8225;SDS011;4154;48.810;9.012;2023-02-04T12:18:39;5.73;;;1.80;;
8225;SDS011;4154;48.810;9.012;2023-02-04T12:21:05;7.20;;;1.90;;
8225;SDS011;4154;48.810;9.012;2023-02-04T12:23:31;5.73;;;2.00;;
8225;SDS011;4154;48.810;9.012;2023-02-04T12:25:57;5.53;;;1.93;;
8225;SDS011;4154;48.810;9.012;2023-02-04T12:28:23;6.13;;;2.13;;
8225;SDS011;4154;48.810;9.012;2023-02-04T12:30:49;4.23;;;1.70;;
8225;SDS011;4154;48.810;9.012;2023-02-04T12:33:15;4.47;;;1.60;;
8225;SDS011;4154;48.810;9.012;2023-02-04T12:35:41;5.00;;;1.87;;
8225;SDS011;4154;48.810;9.012;2023-02-04T12:38:07;2.40;;;1.43;;
8225;SDS011;4154;48.810;9.012;2023-02-04T12:40:34;4.93;;;1.70;;
8225;SDS011;4154;48.810;9.012;2023-02-04T12:43:00;6.73;;;1.70;;
8225;SDS011;4154;48.810;9.012;2023-02-04T12:45:26;3.57;;;1.40;;
8225;SDS011;4154;48.810;9.012;2023-02-04T12:47:51;6.00;;;1.90;;
8225;SDS011;4154;48.810;9.012;2023-02-04T12:50:17;3.60;;;1.40;;
8225;SDS011;4154;48.810;9.012;2023-02-04T12:52:47;3.10;;;1.43;;
8225;SDS011;4154;48.810;9.012;2023-02-04T12:55:20;2.57;;;1.40;;
8225;SDS011;4154;48.810;9.012;2023-02-04T12:57:47;4.97;;;1.60;;
8225;SDS011;4154;48.810;9.012;2023-02-04T13:00:13;6.13;;;2.00;;
8225;SDS011;4154;48.810;9.012;2023-02-04T13:02:44;5.60;;;1.70;;
8225;SDS011;4154;48.810;9.012;2023-02-04T13:05:10;5.17;;;1.50;;
8225;SDS011;4154;48.810;9.012;2023-02-04T13:07:37;9.30;;;1.83;;
8225;SDS011;4154;48.810;9.012;2023-02-04T13:10:08;5.70;;;2.00;;
8225;SDS011;4154;48.810;9.012;2023-02-04T13:12:35;7.27;;;1.80;;
8225;SDS011;4154;48.810;9.012;2023-02-04T13:15:01;6.73;;;2.10;;
8225;SDS011;4154;48.810;9.012;2023-02-04T13:17:27;5.73;;;1.80;;
8225;SDS011;4154;48.810;9.012;2023-02-04T13:19:53;8.53;;;2.27;;
8225;SDS011;4154;48.810;9.012;2023-02-04T13:22:18;5.47;;;2.17;;
8225;SDS011;4154;48.810;9.012;2023-02-04T13:24:44;7.63;;;2.40;;
8225;SDS011;4154;48.810;9.012;2023-02-04T13:27:11;9.77;;;2.50;;
8225;SDS011;4154;48.810;9.012;2023-02-04T13:29:37;8.57;;;2.47;;
8225;SDS011;4154;48.810;9.012;2023-02-04T13:32:04;8.13;;;2.27;;
8225;SDS011;4154;48.810;9.012;2023-02-04T13:34:30;7.40;;;2.57;;
8225;SDS011;4154;48.810;9.012;2023-02-04T13:36:55;6.50;;;2.20;;
8225;SDS011;4154;48.810;9.012;2023-02-04T13:39:21;8.87;;;2.37;;
8225;SDS011;4154;48.810;9.012;2023-02-04T13:41:47;8.07;;;2.60;;
8225;SDS011;4154;48.810;9.012;2023-02-04T13:44:13;6.37;;;2.10;;
8225;SDS011;4154;48.810;9.012;2023-02-04T13:46:38;7.77;;;2.60;;
8225;SDS011;4154;48.810;9.012;2023-02-04T13:49:04;10.43;;;2.40;;
8225;SDS011;4154;48.810;9.012;2023-02-04T13:51:30;6.27;;;2.37;;
8225;SDS011;4154;48.810;9.012;2023-02-04T13:53:55;5.30;;;2.20;;
8225;SDS011;4154;48.810;9.012;2023-02-04T13:56:23;7.63;;;2.60;;
8225;SDS011;4154;48.810;9.012;2023-02-04T13:58:48;8.43;;;2.43;;
8225;SDS011;4154;48.810;9.012;2023-02-04T14:01:14;6.90;;;2.53;;
8225;SDS011;4154;48.810;9.012;2023-02-04T14:03:40;8.97;;;2.70;;
8225;SDS011;4154;48.810;9.012;2023-02-04T14:06:07;8.10;;;2.30;;
8225;SDS011;4154;48.810;9.012;2023-02-04T14:08:32;9.20;;;2.60;;
8225;SDS011;4154;48.810;9.012;2023-02-04T14:10:58;9.60;;;2.87;;
8225;SDS011;4154;48.810;9.012;2023-02-04T14:13:24;6.87;;;2.20;;
8225;SDS011;4154;48.810;9.012;2023-02-04T14:15:50;9.47;;;2.60;;
8225;SDS011;4154;48.810;9.012;2023-02-04T14:18:16;9.77;;;3.00;;
8225;SDS011;4154;48.810;9.012;2023-02-04T14:20:42;6.87;;;2.73;;
8225;SDS011;4154;48.810;9.012;2023-02-04T14:23:08;8.83;;;3.20;;
8225;SDS011;4154;48.810;9.012;2023-02-04T14:25:35;10.50;;;4.10;;
8225;SDS011;4154;48.810;9.012;2023-02-04T14:28:02;8.60;;;2.90;;
8225;SDS011;4154;48.810;9.012;2023-02-04T14:30:29;6.13;;;2.30;;
8225;SDS011;4154;48.810;9.012;2023-02-04T14:32:55;10.23;;;2.40;;
8225;SDS011;4154;48.810;9.012;2023-02-04T14:35:22;8.93;;;2.90;;
8225;SDS011;4154;48.810;9.012;2023-02-04T14:37:49;7.27;;;2.20;;
8225;SDS011;4154;48.810;9.012;2023-02-04T14:40:16;7.63;;;3.33;;
8225;SDS011;4154;48.810;9.012;2023-02-04T14:42:43;7.87;;;2.53;;
8225;SDS011;4154;48.810;9.012;2023-02-04T14:45:10;8.13;;;2.20;;
8225;SDS011;4154;48.810;9.012;2023-02-04T14:47:38;6.80;;;2.43;;
8225;SDS011;4154;48.810;9.012;2023-02-04T14:50:06;9.53;;;2.10;;
8225;SDS011;4154;48.810;9.012;2023-02-04T14:52:37;8.40;;;2.53;;
8225;SDS011;4154;48.810;9.012;2023-02-04T14:55:03;8.43;;;2.63;;
8225;SDS011;4154;48.810;9.012;2023-02-04T14:57:28;7.87;;;3.00;;
8225;SDS011;4154;48.810;9.012;2023-02-04T14:59:54;8.90;;;3.30;;
8225;SDS011;4154;48.810;9.012;2023-02-04T15:02:20;8.27;;;3.90;;
8225;SDS011;4154;48.810;9.012;2023-02-04T15:04:46;7.17;;;2.90;;
8225;SDS011;4154;48.810;9.012;2023-02-04T15:07:12;7.20;;;2.27;;
8225;SDS011;4154;48.810;9.012;2023-02-04T15:09:38;5.97;;;2.30;;
8225;SDS011;4154;48.810;9.012;2023-02-04T15:12:04;6.03;;;2.43;;
8225;SDS011;4154;48.810;9.012;2023-02-04T15:14:30;7.10;;;2.90;;
8225;SDS011;4154;48.810;9.012;2023-02-04T15:16:56;5.87;;;2.77;;
8225;SDS011;4154;48.810;9.012;2023-02-04T15:19:21;8.83;;;2.30;;
8225;SDS011;4154;48.810;9.012;2023-02-04T15:21:49;6.40;;;2.90;;
8225;SDS011;4154;48.810;9.012;2023-02-04T15:24:15;4.37;;;1.90;;
8225;SDS011;4154;48.810;9.012;2023-02-04T15:26:41;5.10;;;2.30;;
8225;SDS011;4154;48.810;9.012;2023-02-04T15:29:07;5.57;;;1.90;;
8225;SDS011;4154;48.810;9.012;2023-02-04T15:31:33;6.60;;;2.03;;
8225;SDS011;4154;48.810;9.012;2023-02-04T15:33:59;6.17;;;1.90;;
8225;SDS011;4154;48.810;9.012;2023-02-04T15:36:25;6.33;;;1.90;;
8225;SDS011;4154;48.810;9.012;2023-02-04T15:38:51;5.37;;;2.03;;
8225;SDS011;4154;48.810;9.012;2023-02-04T15:41:16;5.73;;;2.53;;
8225;SDS011;4154;48.810;9.012;2023-02-04T15:43:42;5.17;;;2.60;;
8225;SDS011;4154;48.810;9.012;2023-02-04T15:46:08;7.27;;;2.60;;
8225;SDS011;4154;48.810;9.012;2023-02-04T15:48:33;5.10;;;2.40;;
8225;SDS011;4154;48.810;9.012;2023-02-04T15:50:59;6.40;;;2.10;;